<?xml version="1.0" encoding="UTF-8" standalone="no" ?>
<gpx xmlns="http://www.topografix.com/GPX/1/1" xmlns:xsi="http://www.w3.org/2001/XMLSchema-instance" xsi:schemaLocation="http://www.topografix.com/GPX/1/1 http://www.topografix.com/GPX/1/1/gpx.xsd" version="1.1" creator="VisuGPX - https://www.visugpx.com">
  <metadata>
    <name>Le Courtaou du Teilhet depuis Campan</name>
  </metadata>
  <wpt lat="43.01705" lon="0.17744">
    <ele>654</ele>
    <name><![CDATA[Mairie de Campan]]></name>
  </wpt>
  <wpt lat="43.01701" lon="0.1799">
    <ele>651</ele>
    <name><![CDATA[Pont sur l']]></name>
  </wpt>
  <wpt lat="43.01708" lon="0.18025">
    <ele>660</ele>
    <name><![CDATA[Carrefour de la boucle]]></name>
  </wpt>
  <wpt lat="43.01941" lon="0.17934">
    <ele>680</ele>
    <name><![CDATA[Intersection]]></name>
  </wpt>
  <wpt lat="43.02544" lon="0.18151">
    <ele>917</ele>
    <name><![CDATA[courtaous]]></name>
  </wpt>
  <wpt lat="43.02591" lon="0.1816">
    <ele>925</ele>
    <name><![CDATA[Croisement piste forestière]]></name>
  </wpt>
  <wpt lat="43.02383" lon="0.19065">
    <ele>1135</ele>
    <name><![CDATA[Crête du Teilhet]]></name>
  </wpt>
  <wpt lat="43.02398" lon="0.19077">
    <ele>1142</ele>
    <name><![CDATA[Crête du Teilhet]]></name>
  </wpt>
  <wpt lat="43.01952" lon="0.19756">
    <ele>1205</ele>
    <name><![CDATA[Courtaou du Teilhet]]></name>
  </wpt>
  <wpt lat="43.0101" lon="0.19558">
    <ele>925</ele>
    <name><![CDATA[Croisement sentier]]></name>
  </wpt>
  <wpt lat="43.00989" lon="0.19573">
    <ele>923</ele>
    <name><![CDATA[Bifurcation]]></name>
  </wpt>
  <wpt lat="43.01705" lon="0.17744">
    <ele>654</ele>
    <name><![CDATA[Mairie de Campan]]></name>
  </wpt>
  <trk>
    <name><![CDATA[Le Courtaou du Teilhet depuis Campan]]></name>
    <trkseg>
      <trkpt lat="43.01705" lon="0.17744">
        <ele>654</ele>
        <time>2019-12-29T12:55:06+01:00</time>
      </trkpt>
      <trkpt lat="43.0172" lon="0.17772">
        <ele>654</ele>
        <time>2019-12-29T12:55:59+01:00</time>
      </trkpt>
      <trkpt lat="43.01753" lon="0.17789">
        <ele>653</ele>
        <time>2019-12-29T12:56:28+01:00</time>
      </trkpt>
      <trkpt lat="43.01778" lon="0.17838">
        <ele>651</ele>
        <time>2019-12-29T12:57:02+01:00</time>
      </trkpt>
      <trkpt lat="43.01749" lon="0.17866">
        <ele>652</ele>
        <time>2019-12-29T12:57:35+01:00</time>
      </trkpt>
      <trkpt lat="43.01714" lon="0.17889">
        <ele>653</ele>
        <time>2019-12-29T12:57:52+01:00</time>
      </trkpt>
      <trkpt lat="43.01708" lon="0.17912">
        <ele>653</ele>
        <time>2019-12-29T12:58:18+01:00</time>
      </trkpt>
      <trkpt lat="43.01696" lon="0.17927">
        <ele>654</ele>
        <time>2019-12-29T12:58:36+01:00</time>
      </trkpt>
      <trkpt lat="43.01688" lon="0.17941">
        <ele>653</ele>
        <time>2019-12-29T12:58:59+01:00</time>
      </trkpt>
      <trkpt lat="43.0167" lon="0.17967">
        <ele>653</ele>
        <time>2019-12-29T13:00:03+01:00</time>
      </trkpt>
      <trkpt lat="43.01683" lon="0.17992">
        <ele>651</ele>
      </trkpt>
      <trkpt lat="43.01701" lon="0.1799">
        <ele>651</ele>
      </trkpt>
      <trkpt lat="43.01713" lon="0.18007">
        <ele>655</ele>
      </trkpt>
      <trkpt lat="43.01708" lon="0.18025">
        <ele>660</ele>
        <time>2019-12-29T13:00:27+01:00</time>
      </trkpt>
      <trkpt lat="43.01733" lon="0.18015">
        <ele>664</ele>
        <time>2019-12-29T13:01:39+01:00</time>
      </trkpt>
      <trkpt lat="43.01751" lon="0.18007">
        <ele>665</ele>
        <time>2019-12-29T13:02:06+01:00</time>
      </trkpt>
      <trkpt lat="43.0177" lon="0.17998">
        <ele>666</ele>
        <time>2019-12-29T13:02:25+01:00</time>
      </trkpt>
      <trkpt lat="43.0179" lon="0.17988">
        <ele>667</ele>
        <time>2019-12-29T13:03:00+01:00</time>
      </trkpt>
      <trkpt lat="43.0181" lon="0.17981">
        <ele>669</ele>
        <time>2019-12-29T13:03:20+01:00</time>
      </trkpt>
      <trkpt lat="43.01833" lon="0.17975">
        <ele>671</ele>
        <time>2019-12-29T13:03:50+01:00</time>
      </trkpt>
      <trkpt lat="43.01857" lon="0.17957">
        <ele>667</ele>
        <time>2019-12-29T13:04:09+01:00</time>
      </trkpt>
      <trkpt lat="43.01875" lon="0.17948">
        <ele>667</ele>
        <time>2019-12-29T13:04:29+01:00</time>
      </trkpt>
      <trkpt lat="43.019" lon="0.17936">
        <ele>669</ele>
        <time>2019-12-29T13:05:09+01:00</time>
      </trkpt>
      <trkpt lat="43.01941" lon="0.17934">
        <ele>680</ele>
        <time>2019-12-29T13:05:44+01:00</time>
      </trkpt>
      <trkpt lat="43.0193" lon="0.17952">
        <ele>685</ele>
      </trkpt>
      <trkpt lat="43.01921" lon="0.17971">
        <ele>690</ele>
        <time>2019-12-29T13:07:06+01:00</time>
      </trkpt>
      <trkpt lat="43.01907" lon="0.18007">
        <ele>702</ele>
        <time>2019-12-29T13:07:29+01:00</time>
      </trkpt>
      <trkpt lat="43.01934" lon="0.18008">
        <ele>708</ele>
        <time>2019-12-29T13:08:53+01:00</time>
      </trkpt>
      <trkpt lat="43.01956" lon="0.18009">
        <ele>714</ele>
        <time>2019-12-29T13:09:27+01:00</time>
      </trkpt>
      <trkpt lat="43.0198" lon="0.18013">
        <ele>721</ele>
        <time>2019-12-29T13:09:56+01:00</time>
      </trkpt>
      <trkpt lat="43.02005" lon="0.18008">
        <ele>722</ele>
        <time>2019-12-29T13:10:27+01:00</time>
      </trkpt>
      <trkpt lat="43.02024" lon="0.18011">
        <ele>726</ele>
        <time>2019-12-29T13:11:04+01:00</time>
      </trkpt>
      <trkpt lat="43.02046" lon="0.18005">
        <ele>727</ele>
        <time>2019-12-29T13:11:28+01:00</time>
      </trkpt>
      <trkpt lat="43.02069" lon="0.18006">
        <ele>730</ele>
        <time>2019-12-29T13:12:01+01:00</time>
      </trkpt>
      <trkpt lat="43.02092" lon="0.1801">
        <ele>733</ele>
        <time>2019-12-29T13:12:26+01:00</time>
      </trkpt>
      <trkpt lat="43.02113" lon="0.18022">
        <ele>740</ele>
        <time>2019-12-29T13:12:55+01:00</time>
      </trkpt>
      <trkpt lat="43.02137" lon="0.18031">
        <ele>741</ele>
        <time>2019-12-29T13:13:34+01:00</time>
      </trkpt>
      <trkpt lat="43.0215" lon="0.18058">
        <ele>748</ele>
        <time>2019-12-29T13:14:22+01:00</time>
      </trkpt>
      <trkpt lat="43.02163" lon="0.18084">
        <ele>755</ele>
        <time>2019-12-29T13:15:10+01:00</time>
      </trkpt>
      <trkpt lat="43.02177" lon="0.18109">
        <ele>761</ele>
        <time>2019-12-29T13:16:13+01:00</time>
      </trkpt>
      <trkpt lat="43.02188" lon="0.18136">
        <ele>769</ele>
        <time>2019-12-29T13:16:27+01:00</time>
      </trkpt>
      <trkpt lat="43.02203" lon="0.1816">
        <ele>775</ele>
        <time>2019-12-29T13:17:53+01:00</time>
      </trkpt>
      <trkpt lat="43.02215" lon="0.18186">
        <ele>782</ele>
        <time>2019-12-29T13:18:21+01:00</time>
      </trkpt>
      <trkpt lat="43.02228" lon="0.18212">
        <ele>788</ele>
        <time>2019-12-29T13:19:10+01:00</time>
      </trkpt>
      <trkpt lat="43.02243" lon="0.18235">
        <ele>795</ele>
        <time>2019-12-29T13:20:01+01:00</time>
      </trkpt>
      <trkpt lat="43.02266" lon="0.1825">
        <ele>800</ele>
        <time>2019-12-29T13:20:22+01:00</time>
      </trkpt>
      <trkpt lat="43.02284" lon="0.18268">
        <ele>806</ele>
        <time>2019-12-29T13:21:06+01:00</time>
      </trkpt>
      <trkpt lat="43.02299" lon="0.18293">
        <ele>812</ele>
        <time>2019-12-29T13:21:37+01:00</time>
      </trkpt>
      <trkpt lat="43.02323" lon="0.18303">
        <ele>817</ele>
        <time>2019-12-29T13:22:31+01:00</time>
      </trkpt>
      <trkpt lat="43.02334" lon="0.1833">
        <ele>823</ele>
        <time>2019-12-29T13:24:16+01:00</time>
      </trkpt>
      <trkpt lat="43.0235" lon="0.18353">
        <ele>834</ele>
        <time>2019-12-29T13:25:04+01:00</time>
      </trkpt>
      <trkpt lat="43.02367" lon="0.18371">
        <ele>844</ele>
        <time>2019-12-29T13:26:10+01:00</time>
      </trkpt>
      <trkpt lat="43.02376" lon="0.18359">
        <ele>848</ele>
        <time>2019-12-29T13:27:01+01:00</time>
      </trkpt>
      <trkpt lat="43.02394" lon="0.18337">
        <ele>859</ele>
        <time>2019-12-29T13:27:32+01:00</time>
      </trkpt>
      <trkpt lat="43.02406" lon="0.1831">
        <ele>864</ele>
        <time>2019-12-29T13:28:51+01:00</time>
      </trkpt>
      <trkpt lat="43.02421" lon="0.18285">
        <ele>872</ele>
        <time>2019-12-29T13:29:59+01:00</time>
      </trkpt>
      <trkpt lat="43.0243" lon="0.18256">
        <ele>876</ele>
        <time>2019-12-29T13:30:44+01:00</time>
      </trkpt>
      <trkpt lat="43.02434" lon="0.18223">
        <ele>882</ele>
        <time>2019-12-29T13:31:20+01:00</time>
      </trkpt>
      <trkpt lat="43.02435" lon="0.18186">
        <ele>886</ele>
        <time>2019-12-29T13:31:52+01:00</time>
      </trkpt>
      <trkpt lat="43.02444" lon="0.18156">
        <ele>893</ele>
        <time>2019-12-29T13:32:21+01:00</time>
      </trkpt>
      <trkpt lat="43.02458" lon="0.18129">
        <ele>893</ele>
        <time>2019-12-29T13:32:54+01:00</time>
      </trkpt>
      <trkpt lat="43.02478" lon="0.18127">
        <ele>897</ele>
      </trkpt>
      <trkpt lat="43.02495" lon="0.18121">
        <ele>897</ele>
        <time>2019-12-29T13:37:36+01:00</time>
      </trkpt>
      <trkpt lat="43.02518" lon="0.18123">
        <ele>901</ele>
        <time>2019-12-29T13:38:02+01:00</time>
      </trkpt>
      <trkpt lat="43.0253" lon="0.18134">
        <ele>908</ele>
        <time>2019-12-29T13:38:49+01:00</time>
      </trkpt>
      <trkpt lat="43.02544" lon="0.18151">
        <ele>917</ele>
        <time>2019-12-29T13:39:40+01:00</time>
      </trkpt>
      <trkpt lat="43.02569" lon="0.18161">
        <ele>924</ele>
        <time>2019-12-29T13:40:10+01:00</time>
      </trkpt>
      <trkpt lat="43.02591" lon="0.1816">
        <ele>925</ele>
        <time>2019-12-29T13:41:22+01:00</time>
      </trkpt>
      <trkpt lat="43.02563" lon="0.18179">
        <ele>931</ele>
        <time>2019-12-29T13:42:13+01:00</time>
      </trkpt>
      <trkpt lat="43.02548" lon="0.18194">
        <ele>934</ele>
        <time>2019-12-29T13:42:55+01:00</time>
      </trkpt>
      <trkpt lat="43.02535" lon="0.18216">
        <ele>937</ele>
        <time>2019-12-29T13:43:14+01:00</time>
      </trkpt>
      <trkpt lat="43.02544" lon="0.18237">
        <ele>943</ele>
        <time>2019-12-29T13:44:26+01:00</time>
      </trkpt>
      <trkpt lat="43.02554" lon="0.18265">
        <ele>950</ele>
        <time>2019-12-29T13:46:14+01:00</time>
      </trkpt>
      <trkpt lat="43.0257" lon="0.1829">
        <ele>959</ele>
        <time>2019-12-29T13:47:07+01:00</time>
      </trkpt>
      <trkpt lat="43.02569" lon="0.18323">
        <ele>963</ele>
        <time>2019-12-29T13:47:39+01:00</time>
      </trkpt>
      <trkpt lat="43.02572" lon="0.18355">
        <ele>969</ele>
        <time>2019-12-29T13:48:08+01:00</time>
      </trkpt>
      <trkpt lat="43.02574" lon="0.18384">
        <ele>974</ele>
        <time>2019-12-29T13:49:02+01:00</time>
      </trkpt>
      <trkpt lat="43.0258" lon="0.18417">
        <ele>984</ele>
        <time>2019-12-29T13:49:57+01:00</time>
      </trkpt>
      <trkpt lat="43.02577" lon="0.18449">
        <ele>988</ele>
        <time>2019-12-29T13:50:25+01:00</time>
      </trkpt>
      <trkpt lat="43.02577" lon="0.18481">
        <ele>995</ele>
        <time>2019-12-29T13:51:22+01:00</time>
      </trkpt>
      <trkpt lat="43.02574" lon="0.18512">
        <ele>1000</ele>
        <time>2019-12-29T13:52:17+01:00</time>
      </trkpt>
      <trkpt lat="43.02575" lon="0.18549">
        <ele>1007</ele>
        <time>2019-12-29T13:53:03+01:00</time>
      </trkpt>
      <trkpt lat="43.02573" lon="0.18582">
        <ele>1010</ele>
        <time>2019-12-29T13:53:48+01:00</time>
      </trkpt>
      <trkpt lat="43.02569" lon="0.18612">
        <ele>1016</ele>
        <time>2019-12-29T13:54:34+01:00</time>
      </trkpt>
      <trkpt lat="43.02562" lon="0.18644">
        <ele>1024</ele>
        <time>2019-12-29T13:55:28+01:00</time>
      </trkpt>
      <trkpt lat="43.02553" lon="0.18665">
        <ele>1026</ele>
        <time>2019-12-29T13:56:00+01:00</time>
      </trkpt>
      <trkpt lat="43.02546" lon="0.18695">
        <ele>1032</ele>
        <time>2019-12-29T13:56:53+01:00</time>
      </trkpt>
      <trkpt lat="43.02538" lon="0.18723">
        <ele>1037</ele>
        <time>2019-12-29T13:57:35+01:00</time>
      </trkpt>
      <trkpt lat="43.02532" lon="0.18753">
        <ele>1043</ele>
        <time>2019-12-29T13:58:06+01:00</time>
      </trkpt>
      <trkpt lat="43.02523" lon="0.18783">
        <ele>1048</ele>
        <time>2019-12-29T13:58:50+01:00</time>
      </trkpt>
      <trkpt lat="43.02508" lon="0.18806">
        <ele>1049</ele>
        <time>2019-12-29T14:00:38+01:00</time>
      </trkpt>
      <trkpt lat="43.02494" lon="0.1883">
        <ele>1055</ele>
        <time>2019-12-29T14:01:13+01:00</time>
      </trkpt>
      <trkpt lat="43.02481" lon="0.18856">
        <ele>1061</ele>
        <time>2019-12-29T14:02:04+01:00</time>
      </trkpt>
      <trkpt lat="43.02464" lon="0.18886">
        <ele>1067</ele>
        <time>2019-12-29T14:04:21+01:00</time>
      </trkpt>
      <trkpt lat="43.02455" lon="0.18911">
        <ele>1075</ele>
        <time>2019-12-29T14:04:30+01:00</time>
      </trkpt>
      <trkpt lat="43.02444" lon="0.1894">
        <ele>1083</ele>
        <time>2019-12-29T14:06:03+01:00</time>
      </trkpt>
      <trkpt lat="43.02426" lon="0.18959">
        <ele>1088</ele>
        <time>2019-12-29T14:06:27+01:00</time>
      </trkpt>
      <trkpt lat="43.02406" lon="0.18986">
        <ele>1097</ele>
        <time>2019-12-29T14:07:43+01:00</time>
      </trkpt>
      <trkpt lat="43.02385" lon="0.19005">
        <ele>1103</ele>
        <time>2019-12-29T14:09:32+01:00</time>
      </trkpt>
      <trkpt lat="43.02367" lon="0.19016">
        <ele>1106</ele>
        <time>2019-12-29T14:10:35+01:00</time>
      </trkpt>
      <trkpt lat="43.02351" lon="0.19039">
        <ele>1118</ele>
        <time>2019-12-29T14:13:41+01:00</time>
      </trkpt>
      <trkpt lat="43.02383" lon="0.19065">
        <ele>1135</ele>
        <time>2019-12-29T14:16:46+01:00</time>
      </trkpt>
      <trkpt lat="43.02398" lon="0.19077">
        <ele>1142</ele>
        <time>2019-12-29T15:03:50+01:00</time>
      </trkpt>
      <trkpt lat="43.02383" lon="0.19097">
        <ele>1146</ele>
        <time>2019-12-29T15:04:49+01:00</time>
      </trkpt>
      <trkpt lat="43.02361" lon="0.19115">
        <ele>1155</ele>
        <time>2019-12-29T15:06:33+01:00</time>
      </trkpt>
      <trkpt lat="43.0234" lon="0.19123">
        <ele>1158</ele>
        <time>2019-12-29T15:08:10+01:00</time>
      </trkpt>
      <trkpt lat="43.0232" lon="0.19139">
        <ele>1166</ele>
        <time>2019-12-29T15:08:45+01:00</time>
      </trkpt>
      <trkpt lat="43.02308" lon="0.19166">
        <ele>1173</ele>
        <time>2019-12-29T15:09:15+01:00</time>
      </trkpt>
      <trkpt lat="43.02293" lon="0.1919">
        <ele>1177</ele>
        <time>2019-12-29T15:09:33+01:00</time>
      </trkpt>
      <trkpt lat="43.02274" lon="0.1921">
        <ele>1181</ele>
        <time>2019-12-29T15:10:34+01:00</time>
      </trkpt>
      <trkpt lat="43.0225" lon="0.1923">
        <ele>1191</ele>
        <time>2019-12-29T15:12:15+01:00</time>
      </trkpt>
      <trkpt lat="43.02233" lon="0.19254">
        <ele>1193</ele>
        <time>2019-12-29T15:12:18+01:00</time>
      </trkpt>
      <trkpt lat="43.02213" lon="0.19271">
        <ele>1199</ele>
        <time>2019-12-29T15:12:21+01:00</time>
      </trkpt>
      <trkpt lat="43.02196" lon="0.19298">
        <ele>1203</ele>
        <time>2019-12-29T15:13:13+01:00</time>
      </trkpt>
      <trkpt lat="43.02184" lon="0.19325">
        <ele>1201</ele>
        <time>2019-12-29T15:14:25+01:00</time>
      </trkpt>
      <trkpt lat="43.02176" lon="0.19352">
        <ele>1197</ele>
        <time>2019-12-29T15:14:45+01:00</time>
      </trkpt>
      <trkpt lat="43.02162" lon="0.19367">
        <ele>1202</ele>
        <time>2019-12-29T15:14:51+01:00</time>
      </trkpt>
      <trkpt lat="43.02143" lon="0.19388">
        <ele>1213</ele>
        <time>2019-12-29T15:14:59+01:00</time>
      </trkpt>
      <trkpt lat="43.02148" lon="0.19427">
        <ele>1201</ele>
        <time>2019-12-29T15:15:14+01:00</time>
      </trkpt>
      <trkpt lat="43.02128" lon="0.1944">
        <ele>1211</ele>
        <time>2019-12-29T15:16:10+01:00</time>
      </trkpt>
      <trkpt lat="43.02107" lon="0.19459">
        <ele>1216</ele>
        <time>2019-12-29T15:16:41+01:00</time>
      </trkpt>
      <trkpt lat="43.02092" lon="0.19482">
        <ele>1217</ele>
        <time>2019-12-29T15:17:40+01:00</time>
      </trkpt>
      <trkpt lat="43.02081" lon="0.1951">
        <ele>1216</ele>
        <time>2019-12-29T15:18:18+01:00</time>
      </trkpt>
      <trkpt lat="43.02068" lon="0.19536">
        <ele>1220</ele>
        <time>2019-12-29T15:18:32+01:00</time>
      </trkpt>
      <trkpt lat="43.02058" lon="0.19563">
        <ele>1221</ele>
        <time>2019-12-29T15:19:12+01:00</time>
      </trkpt>
      <trkpt lat="43.02043" lon="0.19587">
        <ele>1225</ele>
        <time>2019-12-29T15:19:29+01:00</time>
      </trkpt>
      <trkpt lat="43.02031" lon="0.19614">
        <ele>1228</ele>
        <time>2019-12-29T15:20:20+01:00</time>
      </trkpt>
      <trkpt lat="43.02021" lon="0.19642">
        <ele>1231</ele>
        <time>2019-12-29T15:20:57+01:00</time>
      </trkpt>
      <trkpt lat="43.0201" lon="0.1967">
        <ele>1233</ele>
        <time>2019-12-29T15:22:08+01:00</time>
      </trkpt>
      <trkpt lat="43.01988" lon="0.1968">
        <ele>1230</ele>
        <time>2019-12-29T15:23:19+01:00</time>
      </trkpt>
      <trkpt lat="43.01968" lon="0.19696">
        <ele>1223</ele>
        <time>2019-12-29T15:24:10+01:00</time>
      </trkpt>
      <trkpt lat="43.01954" lon="0.19722">
        <ele>1215</ele>
        <time>2019-12-29T15:25:09+01:00</time>
      </trkpt>
      <trkpt lat="43.01952" lon="0.19756">
        <ele>1205</ele>
        <time>2019-12-29T15:25:59+01:00</time>
      </trkpt>
      <trkpt lat="43.01936" lon="0.19779">
        <ele>1195</ele>
        <time>2019-12-29T15:28:07+01:00</time>
      </trkpt>
      <trkpt lat="43.01927" lon="0.19807">
        <ele>1186</ele>
        <time>2019-12-29T15:28:51+01:00</time>
      </trkpt>
      <trkpt lat="43.01903" lon="0.19802">
        <ele>1182</ele>
        <time>2019-12-29T15:29:46+01:00</time>
      </trkpt>
      <trkpt lat="43.01887" lon="0.19785">
        <ele>1181</ele>
        <time>2019-12-29T15:29:52+01:00</time>
      </trkpt>
      <trkpt lat="43.01867" lon="0.19763">
        <ele>1176</ele>
        <time>2019-12-29T15:30:22+01:00</time>
      </trkpt>
      <trkpt lat="43.01851" lon="0.19744">
        <ele>1169</ele>
        <time>2019-12-29T15:30:56+01:00</time>
      </trkpt>
      <trkpt lat="43.01838" lon="0.19718">
        <ele>1162</ele>
        <time>2019-12-29T15:31:11+01:00</time>
      </trkpt>
      <trkpt lat="43.01832" lon="0.19689">
        <ele>1156</ele>
        <time>2019-12-29T15:31:45+01:00</time>
      </trkpt>
      <trkpt lat="43.0182" lon="0.19669">
        <ele>1150</ele>
      </trkpt>
      <trkpt lat="43.01809" lon="0.19695">
        <ele>1145</ele>
      </trkpt>
      <trkpt lat="43.01793" lon="0.19683">
        <ele>1142</ele>
        <time>2019-12-29T15:33:23+01:00</time>
      </trkpt>
      <trkpt lat="43.01774" lon="0.19666">
        <ele>1132</ele>
        <time>2019-12-29T15:34:25+01:00</time>
      </trkpt>
      <trkpt lat="43.0175" lon="0.1966">
        <ele>1128</ele>
        <time>2019-12-29T15:34:38+01:00</time>
      </trkpt>
      <trkpt lat="43.01727" lon="0.19647">
        <ele>1123</ele>
        <time>2019-12-29T15:35:12+01:00</time>
      </trkpt>
      <trkpt lat="43.01706" lon="0.19634">
        <ele>1117</ele>
        <time>2019-12-29T15:35:43+01:00</time>
      </trkpt>
      <trkpt lat="43.01684" lon="0.19629">
        <ele>1111</ele>
        <time>2019-12-29T15:35:59+01:00</time>
      </trkpt>
      <trkpt lat="43.0166" lon="0.1963">
        <ele>1106</ele>
        <time>2019-12-29T15:36:54+01:00</time>
      </trkpt>
      <trkpt lat="43.01638" lon="0.1963">
        <ele>1099</ele>
        <time>2019-12-29T15:37:07+01:00</time>
      </trkpt>
      <trkpt lat="43.01605" lon="0.1963">
        <ele>1091</ele>
        <time>2019-12-29T15:38:19+01:00</time>
      </trkpt>
      <trkpt lat="43.01583" lon="0.19632">
        <ele>1090</ele>
        <time>2019-12-29T15:38:43+01:00</time>
      </trkpt>
      <trkpt lat="43.01579" lon="0.19578">
        <ele>1075</ele>
        <time>2019-12-29T15:39:03+01:00</time>
      </trkpt>
      <trkpt lat="43.01561" lon="0.19557">
        <ele>1071</ele>
        <time>2019-12-29T15:39:22+01:00</time>
      </trkpt>
      <trkpt lat="43.01538" lon="0.19552">
        <ele>1071</ele>
        <time>2019-12-29T15:39:52+01:00</time>
      </trkpt>
      <trkpt lat="43.01517" lon="0.19542">
        <ele>1065</ele>
        <time>2019-12-29T15:40:20+01:00</time>
      </trkpt>
      <trkpt lat="43.01495" lon="0.19535">
        <ele>1061</ele>
        <time>2019-12-29T15:40:32+01:00</time>
      </trkpt>
      <trkpt lat="43.01475" lon="0.19519">
        <ele>1053</ele>
        <time>2019-12-29T15:41:06+01:00</time>
      </trkpt>
      <trkpt lat="43.0145" lon="0.19506">
        <ele>1050</ele>
        <time>2019-12-29T15:41:43+01:00</time>
      </trkpt>
      <trkpt lat="43.01427" lon="0.19496">
        <ele>1046</ele>
        <time>2019-12-29T15:42:02+01:00</time>
      </trkpt>
      <trkpt lat="43.01407" lon="0.19481">
        <ele>1041</ele>
        <time>2019-12-29T15:42:25+01:00</time>
      </trkpt>
      <trkpt lat="43.01388" lon="0.19465">
        <ele>1039</ele>
        <time>2019-12-29T15:42:54+01:00</time>
      </trkpt>
      <trkpt lat="43.01383" lon="0.19434">
        <ele>1028</ele>
        <time>2019-12-29T15:43:21+01:00</time>
      </trkpt>
      <trkpt lat="43.01366" lon="0.19415">
        <ele>1025</ele>
        <time>2019-12-29T15:44:03+01:00</time>
      </trkpt>
      <trkpt lat="43.01349" lon="0.19394">
        <ele>1019</ele>
        <time>2019-12-29T15:44:32+01:00</time>
      </trkpt>
      <trkpt lat="43.01328" lon="0.19379">
        <ele>1015</ele>
        <time>2019-12-29T15:44:55+01:00</time>
      </trkpt>
      <trkpt lat="43.01308" lon="0.19359">
        <ele>1007</ele>
        <time>2019-12-29T15:45:55+01:00</time>
      </trkpt>
      <trkpt lat="43.01287" lon="0.19347">
        <ele>996</ele>
        <time>2019-12-29T15:46:21+01:00</time>
      </trkpt>
      <trkpt lat="43.01264" lon="0.1935">
        <ele>991</ele>
        <time>2019-12-29T15:46:54+01:00</time>
      </trkpt>
      <trkpt lat="43.01243" lon="0.19362">
        <ele>987</ele>
        <time>2019-12-29T15:47:17+01:00</time>
      </trkpt>
      <trkpt lat="43.01221" lon="0.19371">
        <ele>982</ele>
        <time>2019-12-29T15:47:44+01:00</time>
      </trkpt>
      <trkpt lat="43.01199" lon="0.19387">
        <ele>976</ele>
        <time>2019-12-29T15:48:12+01:00</time>
      </trkpt>
      <trkpt lat="43.01181" lon="0.19398">
        <ele>971</ele>
        <time>2019-12-29T15:48:36+01:00</time>
      </trkpt>
      <trkpt lat="43.01163" lon="0.19419">
        <ele>969</ele>
        <time>2019-12-29T15:49:02+01:00</time>
      </trkpt>
      <trkpt lat="43.01144" lon="0.19437">
        <ele>965</ele>
        <time>2019-12-29T15:49:27+01:00</time>
      </trkpt>
      <trkpt lat="43.01127" lon="0.19458">
        <ele>962</ele>
        <time>2019-12-29T15:49:57+01:00</time>
      </trkpt>
      <trkpt lat="43.01108" lon="0.19476">
        <ele>955</ele>
        <time>2019-12-29T15:50:34+01:00</time>
      </trkpt>
      <trkpt lat="43.01089" lon="0.19493">
        <ele>949</ele>
        <time>2019-12-29T15:51:01+01:00</time>
      </trkpt>
      <trkpt lat="43.0107" lon="0.19514">
        <ele>946</ele>
        <time>2019-12-29T15:51:44+01:00</time>
      </trkpt>
      <trkpt lat="43.0105" lon="0.19529">
        <ele>940</ele>
        <time>2019-12-29T15:52:24+01:00</time>
      </trkpt>
      <trkpt lat="43.01029" lon="0.19542">
        <ele>930</ele>
        <time>2019-12-29T15:52:51+01:00</time>
      </trkpt>
      <trkpt lat="43.0101" lon="0.19558">
        <ele>925</ele>
        <time>2019-12-29T15:53:32+01:00</time>
      </trkpt>
      <trkpt lat="43.00989" lon="0.19573">
        <ele>923</ele>
        <time>2019-12-29T15:53:52+01:00</time>
      </trkpt>
      <trkpt lat="43.0099" lon="0.19554">
        <ele>916</ele>
        <time>2019-12-29T15:54:38+01:00</time>
      </trkpt>
      <trkpt lat="43.01001" lon="0.19538">
        <ele>914</ele>
        <time>2019-12-29T15:55:09+01:00</time>
      </trkpt>
      <trkpt lat="43.01005" lon="0.19508">
        <ele>907</ele>
        <time>2019-12-29T15:55:48+01:00</time>
      </trkpt>
      <trkpt lat="43.01006" lon="0.19473">
        <ele>900</ele>
        <time>2019-12-29T15:56:38+01:00</time>
      </trkpt>
      <trkpt lat="43.01013" lon="0.19439">
        <ele>893</ele>
        <time>2019-12-29T15:57:08+01:00</time>
      </trkpt>
      <trkpt lat="43.01018" lon="0.19417">
        <ele>888</ele>
        <time>2019-12-29T15:57:43+01:00</time>
      </trkpt>
      <trkpt lat="43.01022" lon="0.19384">
        <ele>879</ele>
        <time>2019-12-29T15:58:10+01:00</time>
      </trkpt>
      <trkpt lat="43.01033" lon="0.19356">
        <ele>875</ele>
        <time>2019-12-29T15:58:54+01:00</time>
      </trkpt>
      <trkpt lat="43.01038" lon="0.1933">
        <ele>869</ele>
      </trkpt>
      <trkpt lat="43.01017" lon="0.1933">
        <ele>859</ele>
        <time>2019-12-29T16:00:01+01:00</time>
      </trkpt>
      <trkpt lat="43.01031" lon="0.19292">
        <ele>853</ele>
        <time>2019-12-29T16:00:52+01:00</time>
      </trkpt>
      <trkpt lat="43.01048" lon="0.19268">
        <ele>854</ele>
        <time>2019-12-29T16:01:25+01:00</time>
      </trkpt>
      <trkpt lat="43.01058" lon="0.19238">
        <ele>849</ele>
        <time>2019-12-29T16:01:46+01:00</time>
      </trkpt>
      <trkpt lat="43.01064" lon="0.19208">
        <ele>841</ele>
        <time>2019-12-29T16:02:15+01:00</time>
      </trkpt>
      <trkpt lat="43.01075" lon="0.19181">
        <ele>836</ele>
        <time>2019-12-29T16:02:38+01:00</time>
      </trkpt>
      <trkpt lat="43.01088" lon="0.19155">
        <ele>832</ele>
        <time>2019-12-29T16:03:24+01:00</time>
      </trkpt>
      <trkpt lat="43.01103" lon="0.19129">
        <ele>828</ele>
        <time>2019-12-29T16:03:44+01:00</time>
      </trkpt>
      <trkpt lat="43.01121" lon="0.19108">
        <ele>827</ele>
        <time>2019-12-29T16:04:09+01:00</time>
      </trkpt>
      <trkpt lat="43.01135" lon="0.19083">
        <ele>822</ele>
        <time>2019-12-29T16:04:33+01:00</time>
      </trkpt>
      <trkpt lat="43.01146" lon="0.19057">
        <ele>815</ele>
        <time>2019-12-29T16:05:07+01:00</time>
      </trkpt>
      <trkpt lat="43.01163" lon="0.19035">
        <ele>812</ele>
        <time>2019-12-29T16:05:25+01:00</time>
      </trkpt>
      <trkpt lat="43.01175" lon="0.19008">
        <ele>805</ele>
        <time>2019-12-29T16:05:49+01:00</time>
      </trkpt>
      <trkpt lat="43.0119" lon="0.18984">
        <ele>799</ele>
        <time>2019-12-29T16:06:45+01:00</time>
      </trkpt>
      <trkpt lat="43.01196" lon="0.18954">
        <ele>789</ele>
        <time>2019-12-29T16:07:22+01:00</time>
      </trkpt>
      <trkpt lat="43.01215" lon="0.18929">
        <ele>781</ele>
        <time>2019-12-29T16:08:19+01:00</time>
      </trkpt>
      <trkpt lat="43.01235" lon="0.18902">
        <ele>768</ele>
        <time>2019-12-29T16:08:58+01:00</time>
      </trkpt>
      <trkpt lat="43.01252" lon="0.18883">
        <ele>757</ele>
        <time>2019-12-29T16:09:37+01:00</time>
      </trkpt>
      <trkpt lat="43.01281" lon="0.18891">
        <ele>752</ele>
        <time>2019-12-29T16:10:39+01:00</time>
      </trkpt>
      <trkpt lat="43.01289" lon="0.1887">
        <ele>750</ele>
        <time>2019-12-29T16:11:30+01:00</time>
      </trkpt>
      <trkpt lat="43.01281" lon="0.18833">
        <ele>746</ele>
        <time>2019-12-29T16:11:47+01:00</time>
      </trkpt>
      <trkpt lat="43.0127" lon="0.18805">
        <ele>744</ele>
        <time>2019-12-29T16:12:09+01:00</time>
      </trkpt>
      <trkpt lat="43.0127" lon="0.18773">
        <ele>743</ele>
        <time>2019-12-29T16:12:30+01:00</time>
      </trkpt>
      <trkpt lat="43.01272" lon="0.18741">
        <ele>745</ele>
        <time>2019-12-29T16:12:59+01:00</time>
      </trkpt>
      <trkpt lat="43.0127" lon="0.18717">
        <ele>745</ele>
        <time>2019-12-29T16:13:16+01:00</time>
      </trkpt>
      <trkpt lat="43.01276" lon="0.18683">
        <ele>745</ele>
        <time>2019-12-29T16:13:37+01:00</time>
      </trkpt>
      <trkpt lat="43.01289" lon="0.18658">
        <ele>745</ele>
        <time>2019-12-29T16:13:55+01:00</time>
      </trkpt>
      <trkpt lat="43.01296" lon="0.18628">
        <ele>739</ele>
        <time>2019-12-29T16:14:20+01:00</time>
      </trkpt>
      <trkpt lat="43.01312" lon="0.18606">
        <ele>738</ele>
        <time>2019-12-29T16:14:49+01:00</time>
      </trkpt>
      <trkpt lat="43.01326" lon="0.18581">
        <ele>734</ele>
        <time>2019-12-29T16:15:15+01:00</time>
      </trkpt>
      <trkpt lat="43.01346" lon="0.18562">
        <ele>734</ele>
        <time>2019-12-29T16:15:37+01:00</time>
      </trkpt>
      <trkpt lat="43.01365" lon="0.18549">
        <ele>735</ele>
        <time>2019-12-29T16:15:58+01:00</time>
      </trkpt>
      <trkpt lat="43.01378" lon="0.18521">
        <ele>730</ele>
        <time>2019-12-29T16:16:27+01:00</time>
      </trkpt>
      <trkpt lat="43.01393" lon="0.18497">
        <ele>728</ele>
        <time>2019-12-29T16:16:47+01:00</time>
      </trkpt>
      <trkpt lat="43.01404" lon="0.18469">
        <ele>721</ele>
        <time>2019-12-29T16:17:11+01:00</time>
      </trkpt>
      <trkpt lat="43.01414" lon="0.18441">
        <ele>714</ele>
        <time>2019-12-29T16:17:49+01:00</time>
      </trkpt>
      <trkpt lat="43.01429" lon="0.18417">
        <ele>711</ele>
        <time>2019-12-29T16:18:26+01:00</time>
      </trkpt>
      <trkpt lat="43.01442" lon="0.18392">
        <ele>704</ele>
        <time>2019-12-29T16:18:47+01:00</time>
      </trkpt>
      <trkpt lat="43.01457" lon="0.18368">
        <ele>701</ele>
        <time>2019-12-29T16:19:08+01:00</time>
      </trkpt>
      <trkpt lat="43.01465" lon="0.18339">
        <ele>696</ele>
        <time>2019-12-29T16:19:30+01:00</time>
      </trkpt>
      <trkpt lat="43.01473" lon="0.1831">
        <ele>688</ele>
        <time>2019-12-29T16:19:54+01:00</time>
      </trkpt>
      <trkpt lat="43.01485" lon="0.18288">
        <ele>685</ele>
        <time>2019-12-29T16:20:13+01:00</time>
      </trkpt>
      <trkpt lat="43.01505" lon="0.18264">
        <ele>686</ele>
        <time>2019-12-29T16:20:32+01:00</time>
      </trkpt>
      <trkpt lat="43.01514" lon="0.18245">
        <ele>682</ele>
        <time>2019-12-29T16:20:54+01:00</time>
      </trkpt>
      <trkpt lat="43.01526" lon="0.18222">
        <ele>677</ele>
        <time>2019-12-29T16:21:13+01:00</time>
      </trkpt>
      <trkpt lat="43.01541" lon="0.18201">
        <ele>676</ele>
        <time>2019-12-29T16:21:35+01:00</time>
      </trkpt>
      <trkpt lat="43.01564" lon="0.18177">
        <ele>676</ele>
        <time>2019-12-29T16:22:25+01:00</time>
      </trkpt>
      <trkpt lat="43.01581" lon="0.18151">
        <ele>671</ele>
        <time>2019-12-29T16:23:14+01:00</time>
      </trkpt>
      <trkpt lat="43.01598" lon="0.18127">
        <ele>668</ele>
        <time>2019-12-29T16:24:27+01:00</time>
      </trkpt>
      <trkpt lat="43.01624" lon="0.18111">
        <ele>669</ele>
        <time>2019-12-29T16:25:31+01:00</time>
      </trkpt>
      <trkpt lat="43.01637" lon="0.18083">
        <ele>663</ele>
        <time>2019-12-29T16:25:52+01:00</time>
      </trkpt>
      <trkpt lat="43.01654" lon="0.18066">
        <ele>661</ele>
        <time>2019-12-29T16:26:21+01:00</time>
      </trkpt>
      <trkpt lat="43.01681" lon="0.18052">
        <ele>663</ele>
        <time>2019-12-29T16:26:57+01:00</time>
      </trkpt>
      <trkpt lat="43.01694" lon="0.18032">
        <ele>657</ele>
        <time>2019-12-29T16:27:22+01:00</time>
      </trkpt>
      <trkpt lat="43.01708" lon="0.18024">
        <ele>660</ele>
        <time>2019-12-29T16:27:55+01:00</time>
      </trkpt>
      <trkpt lat="43.01713" lon="0.18006">
        <ele>655</ele>
      </trkpt>
      <trkpt lat="43.01701" lon="0.1799">
        <ele>651</ele>
      </trkpt>
      <trkpt lat="43.01684" lon="0.1799">
        <ele>651</ele>
        <time>2019-12-29T16:28:42+01:00</time>
      </trkpt>
      <trkpt lat="43.0167" lon="0.17966">
        <ele>653</ele>
        <time>2019-12-29T16:28:59+01:00</time>
      </trkpt>
      <trkpt lat="43.01688" lon="0.17941">
        <ele>653</ele>
        <time>2019-12-29T16:29:24+01:00</time>
      </trkpt>
      <trkpt lat="43.01697" lon="0.17928">
        <ele>653</ele>
      </trkpt>
      <trkpt lat="43.01707" lon="0.17912">
        <ele>653</ele>
        <time>2019-12-29T16:29:51+01:00</time>
      </trkpt>
      <trkpt lat="43.01715" lon="0.17889">
        <ele>653</ele>
        <time>2019-12-29T16:30:27+01:00</time>
      </trkpt>
      <trkpt lat="43.01748" lon="0.17868">
        <ele>652</ele>
        <time>2019-12-29T16:30:48+01:00</time>
      </trkpt>
      <trkpt lat="43.01777" lon="0.17838">
        <ele>651</ele>
        <time>2019-12-29T16:31:47+01:00</time>
      </trkpt>
      <trkpt lat="43.01754" lon="0.1779">
        <ele>653</ele>
        <time>2019-12-29T16:32:19+01:00</time>
      </trkpt>
      <trkpt lat="43.0172" lon="0.17772">
        <ele>654</ele>
      </trkpt>
      <trkpt lat="43.01705" lon="0.17744">
        <ele>654</ele>
        <time>2019-12-29T16:32:38+01:00</time>
      </trkpt>
    </trkseg>
  </trk>
</gpx>